SBS Squawk Ident logs for EMA Last Update 17-Dec-17 09:50
Movements below 6500ft in a 35 Mile Radius - Archive Logs in root of Website From 17-Dec-17 09:33
Weather - EGNX 170920Z 21012KT 9999 SCT048 02/02 Q1021
      Min Alt<---Altitude--->On Ground Relative
Mode SCallsignNeedRegType Time (date)MinFirstLastFirstLastSquawkRoute
405C04BEE7NLNG-ECOFDH8D09:48 (17)3,600FL2283,600  5414 
406F53GCOVCNG-COVCP28A09:47 (17)2,0002,2002,100  4360 
405FB5AUR72BNG-VZONAT7509:44 (17)5,775FL1625,775  1257 
406D7FGCPLHYG-CPLH*G2CA09:40 (17)1,6002,1001,600  7000